Arena Pharmaceuticals Inc (ARNA) Latest Bloomsberg Price


Mffais Ranking #880 Overall / #19 Industry
Industry: Specialty Pharma

Number of Companies: 79 (Ranking #1914 Overall/#30 Industry)
Inflow: $ 1,958 (K) (Ranking #2425 Overall/#42 Industry)
Outflow: $ -1,264 (K)
Mffais Flow: $ 694 (K) (Ranking #880 Overall/#19 Industry)


Receive a FREE weekly executive review of stocks moving into the top 10, taking the top industy spot or moving up within their industry. Sent directly to your Inbox every Saturday. Sign up today and get last week's review immediately sent to you.

We value and respect your privacy. Please read our Terms and Conditions which states our firm commitment to your privacy. Your email address will not be shared with a third party, nor will it be sold or used for purposes other than subscription for the weekly review.

Owner CPOR Shares Action Qty Chg Invested (K) Total Current Value (K)
Tfs Capital Llc 2016-09-30 609,929 Added More 387,193 $ 642 $ 1,012
Nationwide Fund Advisors 2016-09-30 406,211 Added More 245,180 $ 406 $ 674
Cambridge Investment Research Advisors Inc 2016-09-30 230,975 New Holding 230,975 $ 383 $ 383
Virtus Etf Advisers Llc 2016-09-30 317,632 Added More 40,025 $ 66 $ 527
Advisory Services Network Llc 2016-09-30 36,399 New Holding 36,399 $ 60 $ 60
Hsbc Holdings Plc 2016-09-30 30,893 Added More 30,000 $ 49 $ 51
Waters Parkerson Co Llc 2016-09-30 28,580 New Holding 28,580 $ 47 $ 47
A R T Advisors Llc 2016-09-30 26,500 New Holding 26,500 $ 43 $ 43
Affinity Wealth Management 2016-09-30 24,538 New Holding 24,538 $ 40 $ 40
Sg Americas Securities Llc 2016-09-30 70,221 Added More 23,179 $ 38 $ 116
Teachers Advisors Inc 2016-09-30 385,013 Added More 18,868 $ 31 $ 639
Alambic Investment Management L P 2016-09-30 26,400 Added More 14,900 $ 24 $ 43
Profund Advisors Llc 2016-09-30 11,562 New Holding 11,562 $ 19 $ 19
Sheaff Brock Investment Advisors Llc 2016-09-30 10,000 New Holding 10,000 $ 16 $ 16
Cornerstone Capital Management Holdings Llc 2016-09-30 208,100 Added More 9,600 $ 15 $ 345
Two Sigma Securities Llc 2016-09-30 16,300 Added More 6,048 $ 10 $ 27
National Asset Management Inc 2016-09-30 21,000 Added More 5,000 $ 8 $ 34
Mufg Americas Holdings Corp 2016-09-30 4,900 New Holding 4,900 $ 8 $ 8
Rhumbline Advisers 2016-09-30 258,089 Added More 4,810 $ 7 $ 428
California State Teachers Retirement System 2016-09-30 518,962 Added More 4,800 $ 7 $ 861
Reilly Financial Advisors Llc 2016-09-30 5,000 Added More 3,000 $ 4 $ 8
Raymond James Financial Services Advisors Inc 2016-09-30 26,450 Added More 2,300 $ 3 $ 43
Simplex Trading Llc 2016-09-30 21,641 Added More 2,275 $ 3 $ 35
Blackrock Inc 2016-09-30 23,033 Added More 2,092 $ 3 $ 38
Central Trust Co 2016-09-30 2,000 New Holding 2,000 $ 3 $ 3
Creative Planning 2016-09-30 44,740 Added More 1,200 $ 1 $ 74
Wedbush Securities Inc 2016-09-30 15,594 Added More 1,000 $ 1 $ 25
Hollencrest Securities Llc 2016-09-30 19,953 Added More 750 $ 1 $ 33
Fifth Third Bancorp 2016-09-30 750 New Holding 750 $ 1 $ 1
Ladenburg Thalmann Financial Services Inc 2016-09-30 4,895 Added More 500 $ 0 $ 8
Globeflex Capital L P 2016-09-30 571,940 Added More 440 $ 0 $ 949
Next Financial Group Inc 2016-09-30 5,054 Added More 300 $ 0 $ 8
American International Group Inc 2016-09-30 141,370 Added More 216 $ 0 $ 234
Cable Hill Partners Llc 2016-09-30 2,000 No Change 0 $ 0 $ 3
Legal General Group Plc 2016-09-30 52,708 No Change 0 $ 0 $ 87
New York State Common Retirement Fund 2016-09-30 220,800 No Change 0 $ 0 $ 366
Clifford Swan Investment Counsel Llc 2016-09-30 23,628 No Change 0 $ 0 $ 39
Geneva Advisors Llc 2016-09-30 10,000 No Change 0 $ 0 $ 16
Zurcher Kantonalbank Zurich Cantonalbank 2016-09-30 8,831 No Change 0 $ 0 $ 14
Msi Financial Services Inc 2016-09-30 260 No Change 0 $ 0 $ 0
Plante Moran Financial Advisors Llc 2016-09-30 1,740 No Change 0 $ 0 $ 2
Camber Capital Management Llc 2016-09-30 10,500,000 No Change 0 $ 0 $ 17,430
Hightower Advisors Llc 2016-09-30 19,728 No Change 0 $ 0 $ 32
Qs Investors Llc 2016-09-30 309,563 No Change 0 $ 0 $ 513
Horizon Kinetics Llc 2016-09-30 45,000 No Change 0 $ 0 $ 74
Nuveen Asset Management Llc 2016-09-30 16,226 No Change 0 $ 0 $ 26
Lyons Wealth Management Llc 2016-09-30 42,408 No Change 0 $ 0 $ 70
Swiss National Bank 2016-09-30 386,100 No Change 0 $ 0 $ 640
Integrated Wealth Management 2016-09-30 570 No Change 0 $ 0 $ 0
Ifp Advisors Inc 2016-09-30 1,513 No Change 0 $ 0 $ 2
Cedar Capital Llc 2016-09-30 16,500 No Change 0 $ 0 $ 27
Ausdal Financial Partners Inc 2016-09-30 10,500 No Change 0 $ 0 $ 17
Sevenbridge Financial Group Llc 2016-09-30 300 No Change 0 $ 0 $ 0
Jacobi Capital Management Llc 2016-09-30 35,000 No Change 0 $ 0 $ 58
Parametric Portfolio Associates Llc 2016-09-30 13,439 Sold Some -294 $ -0 $ 22
Sunbelt Securities Inc 2016-09-30 0 Sold All -350 $ -0 $ 0
United Services Automobile Association 2016-09-30 356,420 Sold Some -860 $ -1 $ 591
Pnc Financial Services Group Inc 2016-09-30 2,000 Sold Some -1,299 $ -2 $ 3
Commerzbank Aktiengesellschaft Fi 2016-09-30 28,437 Sold Some -1,709 $ -2 $ 47
Blackrock Investment Management Llc 2016-09-30 945,725 Sold Some -1,826 $ -3 $ 1,569
Tudor Investment Corp Et Al 2016-09-30 24,078 Sold Some -2,125 $ -3 $ 39
Commonwealth Equity Services Inc 2016-09-30 29,824 Sold Some -2,500 $ -4 $ 49
National Planning Corp 2016-09-30 17,450 Sold Some -3,550 $ -5 $ 28
Acrospire Investment Management Llc 2016-09-30 1,300 Sold Some -4,100 $ -6 $ 2
Tower Research Capital Llc Trc 2016-09-30 3,245 Sold Some -6,881 $ -11 $ 5
Teacher Retirement System Of Texas 2016-09-30 25,993 Sold Some -7,954 $ -13 $ 43
Connor Clark Lunn Investment Management Ltd 2016-09-30 141,800 Sold Some -10,800 $ -17 $ 235
Advisor Group Inc 2016-09-30 183,320 Sold Some -16,845 $ -27 $ 304
Stevens Capital Management Lp 2016-09-30 0 Sold All -17,197 $ -28 $ 0
Aperio Group Llc 2016-09-30 59,202 Sold Some -18,537 $ -30 $ 98
Springbok Capital Management Llc 2016-09-30 26,500 Sold Some -19,800 $ -32 $ 43
Squarepoint Ops Llc 2016-09-30 0 Sold All -30,400 $ -50 $ 0
Vsr Financial Services Inc 2016-06-30 0 Sold All -30,000 $ -51 $ 0
Proshare Advisors Llc 2016-09-30 177,628 Sold Some -33,287 $ -55 $ 294
Northern Trust Corp 2016-09-30 2,864,916 Sold Some -34,044 $ -56 $ 4,755
Quantitative Investment Management Llc 2016-09-30 28,000 Sold Some -41,400 $ -68 $ 46
Jacobs Levy Equity Management Inc 2016-09-30 0 Sold All -104,144 $ -172 $ 0
Kcg Holdings Inc 2016-09-30 0 Sold All -136,462 $ -226 $ 0
Senzar Asset Management Llc 2016-09-30 1,637,891 Sold Some -234,300 $ -388 $ 2,718